Time;durP1;ratioP1;P1;durP2;ratioP2;P2;SDS_P1;SDS_P2;PMS_P1;PMS_P2;Temp;Humidity;BMP_temperature;BMP_pressure;BME280_temperature;BME280_humidity;BME280_pressure;Samples;Min_cycle;Max_cycle;Signal;HPM_P1;HPM_P2
2022/11/27 00:01:43;;;;;;;19.23;6.63;;;6.30;99.90;;;;;;5015851;28;20053;-77
2022/11/27 00:04:10;;;;;;;14.13;7.38;;;7.10;99.90;;;;;;5020516;28;20045;-78
2022/11/27 00:06:37;;;;;;;12.48;6.85;;;7.10;99.90;;;;;;5020773;28;20139;-78
2022/11/27 00:09:06;;;;;;;19.30;7.53;;;7.50;99.90;;;;;;5018096;28;20045;-78
2022/11/27 00:11:32;;;;;;;22.83;7.53;;;7.00;99.90;;;;;;5023899;28;20044;-78
2022/11/27 00:13:58;;;;;;;13.02;6.85;;;7.00;99.90;;;;;;5018814;28;20134;-78
2022/11/27 00:16:25;;;;;;;16.75;7.03;;;7.00;99.90;;;;;;5017066;28;20041;-78
2022/11/27 00:18:51;;;;;;;19.15;7.55;;;7.10;99.90;;;;;;5022793;28;20053;-78
2022/11/27 00:21:23;;;;;;;13.02;6.15;;;7.10;99.90;;;;;;5020689;28;20077;-78
2022/11/27 00:23:52;;;;;;;11.45;6.13;;;7.10;99.90;;;;;;5022150;28;20040;-78
2022/11/27 00:26:18;;;;;;;10.55;6.38;;;7.00;99.90;;;;;;5019447;28;20131;-77
2022/11/27 00:28:44;;;;;;;14.60;6.88;;;7.00;99.90;;;;;;5024515;28;20045;-78
2022/11/27 00:31:25;;;;;;;11.95;7.05;;;7.00;99.90;;;;;;5021957;28;20037;-78
2022/11/27 00:33:53;;;;;;;16.55;6.97;;;7.40;99.90;;;;;;5021349;28;20053;-78
2022/11/27 00:36:19;;;;;;;10.95;6.78;;;7.00;99.90;;;;;;5020190;28;20054;-78
2022/11/27 00:38:44;;;;;;;12.50;7.03;;;7.00;99.90;;;;;;5024402;28;20107;-78
2022/11/27 00:41:18;;;;;;;13.38;6.88;;;7.00;99.90;;;;;;5021488;28;20045;-79
2022/11/27 00:43:45;;;;;;;19.92;7.22;;;7.00;99.90;;;;;;5018487;28;20072;-78
2022/11/27 00:46:13;;;;;;;10.43;6.28;;;7.00;99.90;;;;;;5003668;28;21260;-78
2022/11/27 00:48:38;;;;;;;8.18;6.25;;;7.00;99.90;;;;;;5018518;28;20045;-78
2022/11/27 00:51:07;;;;;;;9.70;6.57;;;7.00;99.90;;;;;;5018569;28;20041;-78
2022/11/27 00:53:33;;;;;;;11.93;6.78;;;7.30;99.90;;;;;;5016730;28;20058;-78
2022/11/27 00:55:59;;;;;;;15.65;6.78;;;7.00;99.90;;;;;;5016910;28;20049;-77
2022/11/27 00:58:26;;;;;;;13.00;6.05;;;6.90;99.90;;;;;;5023003;28;20049;-78
2022/11/27 01:01:02;;;;;;;12.80;6.60;;;6.90;99.90;;;;;;5017381;28;20344;-78
2022/11/27 01:03:29;;;;;;;15.23;6.43;;;6.90;99.90;;;;;;5017287;28;20049;-77
2022/11/27 01:05:55;;;;;;;14.20;6.72;;;6.90;99.90;;;;;;5022828;28;20079;-78
2022/11/27 01:08:22;;;;;;;12.80;7.05;;;6.90;99.90;;;;;;5011850;28;20316;-78
2022/11/27 01:10:54;;;;;;;16.25;7.75;;;6.80;99.90;;;;;;5019609;28;20069;-78
2022/11/27 01:13:25;;;;;;;16.63;7.43;;;6.80;99.90;;;;;;5019156;28;20056;-78
2022/11/27 01:16:20;;;;;;;10.75;5.93;;;6.80;99.90;;;;;;5017604;28;20310;-78
2022/11/27 01:18:48;;;;;;;14.48;7.22;;;6.80;99.90;;;;;;5030279;28;20045;-77
2022/11/27 01:21:16;;;;;;;9.55;5.50;;;6.80;99.90;;;;;;5023603;28;20041;-78
2022/11/27 01:23:41;;;;;;;13.20;6.88;;;7.30;99.90;;;;;;5016539;28;20045;-78
2022/11/27 01:26:09;;;;;;;9.18;5.80;;;6.70;99.90;;;;;;5016317;28;20148;-77
2022/11/27 01:28:35;;;;;;;9.30;6.65;;;6.80;99.90;;;;;;5002086;28;20057;-77
2022/11/27 01:31:07;;;;;;;12.40;6.05;;;6.70;99.90;;;;;;5022591;28;20052;-77
2022/11/27 01:33:33;;;;;;;17.75;8.05;;;6.70;99.90;;;;;;5036143;28;20055;-78
2022/11/27 01:36:01;;;;;;;12.13;6.05;;;6.80;99.90;;;;;;5013432;28;20057;-78
2022/11/27 01:38:28;;;;;;;9.05;5.97;;;6.70;99.90;;;;;;5020760;28;20160;-77
2022/11/27 01:41:06;;;;;;;14.65;7.32;;;7.40;99.90;;;;;;5011628;28;20129;-79
2022/11/27 01:43:46;;;;;;;13.13;5.93;;;6.70;99.90;;;;;;5008159;28;20128;-78
2022/11/27 01:46:21;;;;;;;13.90;6.60;;;6.70;99.90;;;;;;5012964;28;20473;-77
2022/11/27 01:48:48;;;;;;;14.82;7.38;;;6.70;99.90;;;;;;5018881;28;20111;-78
2022/11/27 01:51:14;;;;;;;10.52;5.95;;;6.80;99.90;;;;;;5019444;28;20115;-78
2022/11/27 01:53:40;;;;;;;10.60;6.35;;;6.70;99.90;;;;;;5023242;28;20041;-79
2022/11/27 01:56:07;;;;;;;14.65;6.30;;;6.70;99.90;;;;;;5018110;28;20064;-78
2022/11/27 01:58:34;;;;;;;8.95;6.10;;;7.30;99.90;;;;;;5025491;28;20139;-78
2022/11/27 02:01:00;;;;;;;12.93;6.25;;;7.80;99.90;;;;;;5024714;28;20046;-79
2022/11/27 02:03:26;;;;;;;8.52;5.60;;;6.60;99.90;;;;;;5017120;28;20046;-78
2022/11/27 02:05:51;;;;;;;10.73;5.68;;;6.50;99.90;;;;;;5020631;28;20042;-78
2022/11/27 02:08:17;;;;;;;13.90;6.25;;;6.60;99.90;;;;;;5018742;28;20045;-78
2022/11/27 02:10:59;;;;;;;14.63;8.02;;;6.60;99.90;;;;;;5013926;28;20558;-78
2022/11/27 02:14:02;;;;;;;11.13;5.72;;;6.50;99.90;;;;;;4995317;28;20124;-79
2022/11/27 02:16:37;;;;;;;8.20;4.90;;;6.50;99.90;;;;;;5005781;28;20057;-79
2022/11/27 02:19:12;;;;;;;13.80;6.28;;;7.70;99.90;;;;;;5025125;28;20153;-79
2022/11/27 02:21:41;;;;;;;12.70;7.18;;;6.50;99.90;;;;;;5016676;28;20053;-78
2022/11/27 02:24:32;;;;;;;12.45;7.25;;;6.50;99.90;;;;;;5014890;28;20049;-78
2022/11/27 02:27:35;;;;;;;10.38;5.95;;;6.50;99.90;;;;;;5013297;28;20083;-78
2022/11/27 02:30:03;;;;;;;11.98;7.35;;;6.50;99.90;;;;;;5016013;28;20096;-79
2022/11/27 02:32:37;;;;;;;10.05;5.93;;;6.10;99.90;;;;;;5014941;28;20054;-78
2022/11/27 02:35:29;;;;;;;9.75;5.85;;;6.50;99.90;;;;;;5025955;28;20447;-78
2022/11/27 02:38:10;;;;;;;9.75;5.88;;;6.50;99.90;;;;;;5014382;28;20053;-78
2022/11/27 02:40:51;;;;;;;10.13;6.95;;;6.60;99.90;;;;;;4998790;28;20129;-78
2022/11/27 02:43:19;;;;;;;8.77;5.80;;;6.50;99.90;;;;;;5011991;28;20251;-78
2022/11/27 02:45:50;;;;;;;11.52;6.03;;;6.60;99.90;;;;;;5013211;28;20049;-78
2022/11/27 02:48:30;;;;;;;8.65;6.00;;;6.80;99.90;;;;;;5014721;28;20083;-78
2022/11/27 02:50:55;;;;;;;13.30;6.95;;;6.60;99.90;;;;;;5017505;28;20084;-78
2022/11/27 02:53:26;;;;;;;9.88;5.90;;;6.60;99.90;;;;;;5009871;28;20329;-78
2022/11/27 02:55:53;;;;;;;9.73;5.90;;;7.60;99.90;;;;;;5002476;28;20050;-78
2022/11/27 02:58:22;;;;;;;11.02;6.57;;;6.60;99.90;;;;;;5011562;28;20658;-77
2022/11/27 03:00:49;;;;;;;17.60;7.25;;;6.60;99.90;;;;;;5013867;28;20057;-78
2022/11/27 03:03:19;;;;;;;10.20;6.43;;;6.60;99.90;;;;;;5016550;28;20116;-78
2022/11/27 03:05:49;;;;;;;13.38;6.07;;;6.70;99.90;;;;;;5016434;28;20053;-78
2022/11/27 03:08:29;;;;;;;10.77;6.32;;;6.70;99.90;;;;;;5014867;28;20084;-78
2022/11/27 03:11:06;;;;;;;11.20;5.93;;;7.60;99.90;;;;;;5006562;28;20053;-79
2022/11/27 03:13:37;;;;;;;8.73;5.93;;;6.70;99.90;;;;;;5018791;28;20482;-78
2022/11/27 03:16:24;;;;;;;9.45;5.70;;;6.80;99.90;;;;;;5026628;28;20053;-78
2022/11/27 03:19:26;;;;;;;11.93;5.53;;;6.80;99.90;;;;;;5022353;28;20103;-78
2022/11/27 03:21:56;;;;;;;9.40;5.95;;;6.80;99.90;;;;;;5025345;28;20041;-79
2022/11/27 03:24:22;;;;;;;10.13;6.38;;;6.80;99.90;;;;;;5015115;28;20921;-78
2022/11/27 03:26:48;;;;;;;12.18;6.30;;;6.80;99.90;;;;;;5027968;28;20056;-79
2022/11/27 03:29:20;;;;;;;9.10;5.82;;;7.50;99.90;;;;;;5020209;28;20037;-78
2022/11/27 03:31:46;;;;;;;13.63;5.82;;;6.80;99.90;;;;;;5018937;28;20153;-78
2022/11/27 03:34:12;;;;;;;11.15;6.80;;;6.80;99.90;;;;;;5018813;28;20049;-79
2022/11/27 03:36:38;;;;;;;9.82;5.80;;;6.80;99.90;;;;;;5015050;28;20067;-78
2022/11/27 03:39:04;;;;;;;7.80;5.63;;;6.80;99.90;;;;;;5019019;28;20060;-78
2022/11/27 03:41:52;;;;;;;12.57;5.97;;;6.80;99.90;;;;;;5018391;28;20192;-78
2022/11/27 03:44:40;;;;;;;9.25;5.78;;;6.80;99.90;;;;;;4991140;28;20057;-79
2022/11/27 03:47:34;;;;;;;8.57;5.60;;;6.80;99.90;;;;;;5019690;28;20091;-78
2022/11/27 03:50:09;;;;;;;9.75;6.72;;;6.80;99.90;;;;;;5016697;28;20056;-78
2022/11/27 03:52:56;;;;;;;12.13;5.95;;;6.70;99.90;;;;;;5017965;28;20211;-78
2022/11/27 03:55:36;;;;;;;9.48;6.43;;;6.70;99.90;;;;;;5026199;28;20545;-78
2022/11/27 03:58:19;;;;;;;11.00;6.03;;;6.70;99.90;;;;;;5018492;28;20607;-78
2022/11/27 04:00:49;;;;;;;11.93;6.40;;;6.70;99.90;;;;;;5015742;28;20135;-78
2022/11/27 04:03:26;;;;;;;8.20;5.95;;;6.70;99.90;;;;;;5013869;28;20119;-78
2022/11/27 04:05:56;;;;;;;8.32;5.30;;;6.70;99.90;;;;;;5012263;28;20057;-78
2022/11/27 04:08:24;;;;;;;17.63;6.18;;;6.70;99.90;;;;;;4997458;28;20049;-79
2022/11/27 04:10:49;;;;;;;10.38;5.85;;;7.10;99.90;;;;;;5015959;28;20594;-78
2022/11/27 04:13:15;;;;;;;9.50;6.13;;;6.60;99.90;;;;;;5009729;28;20049;-78
2022/11/27 04:15:41;;;;;;;10.70;5.70;;;6.60;99.90;;;;;;5017012;28;20042;-78
2022/11/27 04:18:07;;;;;;;7.93;5.15;;;7.60;99.90;;;;;;5018660;28;20064;-78
2022/11/27 04:20:33;;;;;;;12.77;5.00;;;6.60;99.90;;;;;;5017203;28;20061;-77
2022/11/27 04:22:58;;;;;;;9.68;5.43;;;6.60;99.90;;;;;;4998958;28;20581;-78
2022/11/27 04:25:24;;;;;;;8.82;5.80;;;6.60;99.90;;;;;;5017451;28;20268;-79
2022/11/27 04:27:50;;;;;;;7.57;5.53;;;6.50;99.90;;;;;;5015850;28;20053;-78
2022/11/27 04:30:16;;;;;;;7.75;5.38;;;6.50;99.90;;;;;;5023027;28;20414;-79
2022/11/27 04:32:42;;;;;;;9.07;5.70;;;6.50;99.90;;;;;;5026725;28;20597;-79
2022/11/27 04:35:08;;;;;;;12.18;5.72;;;6.50;99.90;;;;;;5014015;28;20064;-81
2022/11/27 04:37:34;;;;;;;11.77;5.85;;;6.50;99.90;;;;;;5009644;28;20136;-78
2022/11/27 04:40:00;;;;;;;12.60;5.43;;;6.70;99.90;;;;;;5023653;28;20049;-79
2022/11/27 04:42:26;;;;;;;11.48;5.45;;;6.50;99.90;;;;;;5024513;28;20102;-79
2022/11/27 04:44:51;;;;;;;6.22;4.50;;;6.70;99.90;;;;;;5016187;28;20045;-79
2022/11/27 04:47:17;;;;;;;12.38;6.20;;;7.30;99.90;;;;;;5016322;28;20132;-78
2022/11/27 04:49:42;;;;;;;7.22;5.13;;;6.50;99.90;;;;;;5016602;28;20851;-78
2022/11/27 04:52:09;;;;;;;10.75;6.07;;;6.90;99.90;;;;;;5018496;28;20045;-78
2022/11/27 04:54:35;;;;;;;8.65;5.57;;;6.40;99.90;;;;;;5027365;28;20545;-79
2022/11/27 04:57:02;;;;;;;12.20;6.15;;;6.50;99.90;;;;;;5015191;28;20049;-79
2022/11/27 04:59:28;;;;;;;11.20;5.55;;;6.50;99.90;;;;;;5014002;28;20057;-79
2022/11/27 05:01:54;;;;;;;11.05;5.32;;;6.70;99.90;;;;;;5016235;28;20160;-78
2022/11/27 05:04:20;;;;;;;8.90;5.03;;;6.50;99.90;;;;;;5005459;28;20073;-79
2022/11/27 05:06:46;;;;;;;10.55;5.13;;;6.50;99.90;;;;;;5025266;28;20055;-79
2022/11/27 05:09:12;;;;;;;10.40;5.13;;;7.00;99.90;;;;;;5018176;28;20049;-79
2022/11/27 05:11:38;;;;;;;9.55;4.47;;;7.50;99.90;;;;;;5015711;28;20930;-79
2022/11/27 05:14:16;;;;;;;11.45;5.60;;;6.40;99.90;;;;;;5010310;28;20561;-79
2022/11/27 05:16:54;;;;;;;11.57;5.47;;;6.50;99.90;;;;;;5015785;28;20115;-79
2022/11/27 05:19:22;;;;;;;9.57;5.50;;;6.50;99.90;;;;;;5012250;28;20817;-79
2022/11/27 05:21:49;;;;;;;8.43;4.97;;;6.50;99.90;;;;;;5008886;28;20124;-79
2022/11/27 05:24:16;;;;;;;8.32;5.82;;;6.40;99.90;;;;;;5006626;28;20037;-79
2022/11/27 05:26:42;;;;;;;14.52;5.05;;;6.40;99.90;;;;;;5026999;28;20042;-79
2022/11/27 05:29:09;;;;;;;8.23;4.88;;;6.40;99.90;;;;;;5024593;28;20053;-79
2022/11/27 05:31:35;;;;;;;11.90;5.70;;;6.40;99.90;;;;;;5023043;28;20081;-78
2022/11/27 05:34:02;;;;;;;10.65;5.18;;;6.40;99.90;;;;;;5019228;28;20805;-79
2022/11/27 05:36:29;;;;;;;8.00;4.78;;;7.30;99.90;;;;;;5014875;28;20045;-79
2022/11/27 05:38:55;;;;;;;7.88;5.13;;;6.40;99.90;;;;;;5022099;28;20041;-78
2022/11/27 05:41:20;;;;;;;7.82;5.30;;;7.20;99.90;;;;;;5012535;28;20520;-79
2022/11/27 05:43:46;;;;;;;9.18;5.43;;;6.30;99.90;;;;;;5016334;28;20398;-78
2022/11/27 05:46:15;;;;;;;7.32;4.45;;;6.30;99.90;;;;;;5019120;28;20124;-79
2022/11/27 05:48:41;;;;;;;7.28;4.93;;;6.30;99.90;;;;;;5017793;28;20049;-79
2022/11/27 05:51:07;;;;;;;9.05;5.20;;;6.30;99.90;;;;;;5038458;28;20135;-79
2022/11/27 05:53:33;;;;;;;10.10;4.85;;;6.30;99.90;;;;;;5010675;28;20050;-79
2022/11/27 05:56:03;;;;;;;8.52;4.93;;;6.30;99.90;;;;;;5015882;28;20903;-79
2022/11/27 05:58:29;;;;;;;6.13;4.53;;;6.30;99.90;;;;;;5017365;28;20099;-78
2022/11/27 06:00:55;;;;;;;11.05;4.93;;;6.30;99.90;;;;;;5015826;28;20049;-78
2022/11/27 06:03:21;;;;;;;8.52;4.82;;;6.30;99.90;;;;;;5017520;28;20856;-79
2022/11/27 06:05:46;;;;;;;10.55;4.97;;;6.30;99.90;;;;;;5013595;28;20147;-78
2022/11/27 06:08:12;;;;;;;10.02;4.88;;;6.70;99.90;;;;;;5015834;28;20546;-79
2022/11/27 06:10:38;;;;;;;7.60;4.65;;;6.30;99.90;;;;;;5018212;28;20060;-79
2022/11/27 06:13:05;;;;;;;9.60;4.72;;;6.30;99.90;;;;;;5016548;28;20081;-79
2022/11/27 06:15:30;;;;;;;10.25;4.18;;;6.40;99.90;;;;;;5015899;28;20218;-79
2022/11/27 06:17:56;;;;;;;8.40;4.25;;;6.40;99.90;;;;;;5014020;28;20943;-82
2022/11/27 06:20:22;;;;;;;10.00;3.95;;;6.40;99.90;;;;;;5007218;28;20647;-80
2022/11/27 06:22:49;;;;;;;7.53;4.57;;;6.30;99.90;;;;;;5016969;28;20053;-80
2022/11/27 06:25:15;;;;;;;5.28;4.18;;;6.60;99.90;;;;;;5014901;28;20069;-79
2022/11/27 06:27:40;;;;;;;7.78;4.93;;;6.30;99.90;;;;;;5018792;28;20592;-79
2022/11/27 06:30:07;;;;;;;6.95;4.63;;;6.40;99.90;;;;;;5019468;28;20123;-79
2022/11/27 06:32:32;;;;;;;7.38;4.80;;;6.40;99.90;;;;;;5015746;28;20046;-80
2022/11/27 06:34:58;;;;;;;8.43;4.38;;;6.40;99.90;;;;;;5016521;28;20103;-79
2022/11/27 06:37:24;;;;;;;7.35;4.63;;;6.40;99.90;;;;;;5011905;28;20053;-79
2022/11/27 06:39:50;;;;;;;13.55;4.93;;;6.40;99.90;;;;;;5014855;28;20072;-79
2022/11/27 06:42:15;;;;;;;8.70;3.95;;;7.40;99.90;;;;;;5014453;28;20050;-79
2022/11/27 06:44:41;;;;;;;6.75;4.43;;;6.40;99.90;;;;;;5013939;28;20045;-78
2022/11/27 06:47:07;;;;;;;9.05;4.50;;;6.40;99.90;;;;;;5014399;28;20127;-79
2022/11/27 06:49:33;;;;;;;9.85;4.25;;;6.40;99.90;;;;;;5013297;28;20064;-80
2022/11/27 06:51:59;;;;;;;9.25;3.90;;;6.50;99.90;;;;;;5016722;28;20038;-79
2022/11/27 06:54:25;;;;;;;8.50;4.45;;;6.40;99.90;;;;;;5018403;28;20336;-79
2022/11/27 06:56:51;;;;;;;7.63;4.50;;;6.40;99.90;;;;;;5013397;28;20088;-78
2022/11/27 06:59:17;;;;;;;9.27;4.90;;;6.50;99.90;;;;;;5017946;28;20120;-78
2022/11/27 07:01:43;;;;;;;5.97;3.70;;;7.10;99.90;;;;;;5015714;28;20151;-79
2022/11/27 07:04:10;;;;;;;6.35;3.85;;;6.50;99.90;;;;;;5012486;28;20160;-79
2022/11/27 07:06:36;;;;;;;6.50;4.00;;;6.50;99.90;;;;;;5011210;28;20677;-79
2022/11/27 07:09:03;;;;;;;11.43;6.07;;;6.50;99.90;;;;;;5012525;28;20045;-79
2022/11/27 07:11:30;;;;;;;9.27;3.80;;;6.50;99.90;;;;;;5017348;28;20133;-78
2022/11/27 07:13:59;;;;;;;8.77;4.50;;;6.50;99.90;;;;;;5017453;28;20599;-78
2022/11/27 07:16:26;;;;;;;7.85;4.78;;;6.50;99.90;;;;;;5010232;28;20156;-79
2022/11/27 07:18:54;;;;;;;4.85;4.22;;;6.50;99.90;;;;;;5018865;28;20055;-79
2022/11/27 07:21:20;;;;;;;10.38;5.78;;;6.50;99.90;;;;;;5020541;28;20121;-79
2022/11/27 07:23:46;;;;;;;7.40;4.32;;;6.50;99.90;;;;;;5018923;28;20055;-78
2022/11/27 07:26:15;;;;;;;10.00;4.10;;;6.50;99.90;;;;;;5014556;28;20043;-78
2022/11/27 07:28:43;;;;;;;8.30;4.18;;;6.30;99.90;;;;;;5011363;28;20053;-78
2022/11/27 07:31:14;;;;;;;11.60;5.32;;;7.10;99.90;;;;;;5014323;28;20076;-78
2022/11/27 07:33:40;;;;;;;6.90;4.25;;;6.60;99.90;;;;;;5013807;28;20132;-79
2022/11/27 07:36:11;;;;;;;9.05;4.63;;;6.60;99.90;;;;;;5013499;28;20042;-79
2022/11/27 07:38:37;;;;;;;7.63;3.85;;;6.60;99.90;;;;;;5011869;28;20152;-78
2022/11/27 07:41:04;;;;;;;8.93;4.00;;;8.00;99.90;;;;;;5016900;28;20084;-79
2022/11/27 07:43:31;;;;;;;6.38;4.43;;;6.60;99.90;;;;;;5016134;28;20050;-78
2022/11/27 07:45:57;;;;;;;12.68;5.07;;;6.70;99.90;;;;;;5017190;28;20148;-78
2022/11/27 07:48:23;;;;;;;10.93;4.35;;;6.70;99.90;;;;;;5010129;28;20576;-79
2022/11/27 07:50:49;;;;;;;9.75;4.60;;;7.20;99.90;;;;;;5014449;28;20053;-80
2022/11/27 07:53:14;;;;;;;6.72;4.38;;;6.70;99.90;;;;;;5009087;28;20184;-79
2022/11/27 07:55:40;;;;;;;11.73;4.38;;;6.70;99.90;;;;;;5014084;28;20209;-79
2022/11/27 07:58:07;;;;;;;6.05;4.45;;;6.70;99.90;;;;;;5013051;28;20048;-80
2022/11/27 08:00:34;;;;;;;7.05;4.03;;;6.70;99.90;;;;;;5017815;28;20132;-79
2022/11/27 08:03:00;;;;;;;12.07;5.40;;;6.70;99.90;;;;;;5012343;28;20042;-80
2022/11/27 08:05:26;;;;;;;7.47;4.97;;;6.80;99.90;;;;;;5014465;28;20065;-79
2022/11/27 08:07:52;;;;;;;7.00;5.18;;;6.80;99.90;;;;;;5018650;28;20033;-79
2022/11/27 08:10:17;;;;;;;10.75;5.03;;;6.80;99.90;;;;;;5013280;28;20110;-79
2022/11/27 08:12:43;;;;;;;9.30;4.72;;;6.80;99.90;;;;;;5028712;28;20168;-79
2022/11/27 08:15:09;;;;;;;10.68;4.57;;;6.80;99.90;;;;;;5025913;28;20053;-80
2022/11/27 08:17:35;;;;;;;8.75;4.63;;;6.90;99.90;;;;;;5010606;28;20512;-79
2022/11/27 08:20:02;;;;;;;7.55;5.13;;;6.90;99.90;;;;;;5016001;28;20049;-78
2022/11/27 08:22:28;;;;;;;7.15;4.28;;;7.00;99.90;;;;;;5026636;28;20152;-80
2022/11/27 08:24:54;;;;;;;7.15;4.05;;;7.00;99.90;;;;;;5021549;28;20122;-81
2022/11/27 08:27:19;;;;;;;10.13;4.65;;;7.00;99.90;;;;;;5017692;28;20596;-81
2022/11/27 08:29:45;;;;;;;7.57;4.32;;;7.50;99.90;;;;;;5029735;28;20053;-81
2022/11/27 08:32:11;;;;;;;5.75;4.72;;;7.60;99.90;;;;;;5019578;28;20084;-81
2022/11/27 08:34:37;;;;;;;7.35;3.90;;;7.10;99.90;;;;;;5023431;28;20054;-82
2022/11/27 08:37:07;;;;;;;17.83;6.30;;;7.10;99.90;;;;;;5017393;28;20092;-81
2022/11/27 08:39:33;;;;;;;8.25;5.20;;;7.10;99.90;;;;;;5021210;28;20047;-81
2022/11/27 08:41:59;;;;;;;9.75;5.07;;;7.10;99.90;;;;;;5006462;28;20050;-81
2022/11/27 08:44:25;;;;;;;10.73;4.65;;;7.10;99.90;;;;;;5019142;28;20056;-82
2022/11/27 08:46:50;;;;;;;7.05;5.07;;;7.10;99.90;;;;;;5030694;28;20410;-79
2022/11/27 08:49:16;;;;;;;6.63;4.85;;;7.00;99.90;;;;;;5018796;28;20037;-82
2022/11/27 08:51:42;;;;;;;5.70;4.32;;;7.10;99.90;;;;;;5031868;28;20064;-81
2022/11/27 08:54:08;;;;;;;11.15;5.53;;;7.10;99.90;;;;;;5032061;28;20612;-81
2022/11/27 08:56:34;;;;;;;8.15;5.78;;;7.30;99.90;;;;;;5019143;28;20052;-82
2022/11/27 08:59:00;;;;;;;8.05;4.85;;;7.10;99.90;;;;;;5013690;28;20046;-82
2022/11/27 09:01:28;;;;;;;6.50;4.95;;;7.00;99.90;;;;;;5018520;28;20048;-81
2022/11/27 09:03:55;;;;;;;8.05;5.72;;;8.00;99.90;;;;;;5016837;28;20106;-81
2022/11/27 09:06:23;;;;;;;8.85;4.35;;;7.90;99.90;;;;;;5043401;28;20025;-80
2022/11/27 09:08:49;;;;;;;7.00;4.60;;;7.00;99.90;;;;;;5029540;28;20110;-81
2022/11/27 09:11:16;;;;;;;9.73;5.75;;;7.10;99.90;;;;;;5018723;28;20061;-81
2022/11/27 09:13:42;;;;;;;9.20;5.00;;;7.00;99.90;;;;;;5015476;28;20561;-81
2022/11/27 09:16:12;;;;;;;9.48;4.80;;;7.50;99.90;;;;;;5011637;28;20076;-81
2022/11/27 09:18:38;;;;;;;11.43;5.47;;;7.60;99.90;;;;;;5017454;28;20057;-81
2022/11/27 09:21:07;;;;;;;11.95;4.90;;;7.10;99.90;;;;;;5016918;28;20053;-81
2022/11/27 09:23:34;;;;;;;10.07;5.22;;;7.10;99.90;;;;;;5016001;28;20139;-80
2022/11/27 09:26:01;;;;;;;7.60;4.88;;;7.10;99.90;;;;;;5017068;28;20075;-81
2022/11/27 09:28:27;;;;;;;13.48;5.80;;;7.10;99.90;;;;;;5025532;28;20501;-81
2022/11/27 09:30:57;;;;;;;8.68;6.20;;;7.10;99.90;;;;;;5018691;28;20055;-82
2022/11/27 09:33:24;;;;;;;9.52;4.80;;;7.10;99.90;;;;;;5001371;28;20454;-81
2022/11/27 09:35:50;;;;;;;10.70;6.30;;;7.10;99.90;;;;;;5014133;28;20053;-81
2022/11/27 09:38:16;;;;;;;11.35;5.07;;;7.10;99.90;;;;;;5018489;28;20045;-82
2022/11/27 09:40:50;;;;;;;10.27;5.60;;;7.10;99.90;;;;;;5014981;28;20049;-82
2022/11/27 09:43:17;;;;;;;8.60;5.60;;;7.10;99.90;;;;;;5012121;28;20042;-82
2022/11/27 09:45:54;;;;;;;7.63;5.22;;;7.00;99.90;;;;;;5012550;28;20117;-82
2022/11/27 09:48:33;;;;;;;7.82;4.85;;;7.00;99.90;;;;;;5011362;28;20456;-81
2022/11/27 09:51:01;;;;;;;11.23;5.85;;;7.10;99.90;;;;;;5015416;28;20831;-81
2022/11/27 09:53:47;;;;;;;9.82;5.82;;;7.00;99.90;;;;;;5017764;28;20045;-81
2022/11/27 09:56:16;;;;;;;8.98;6.13;;;7.10;99.90;;;;;;5017744;28;20049;-81
2022/11/27 09:58:54;;;;;;;7.47;5.15;;;7.30;99.90;;;;;;5018377;28;20076;-81
2022/11/27 10:01:25;;;;;;;6.93;5.13;;;7.00;99.90;;;;;;5024020;28;20908;-81
2022/11/27 10:03:51;;;;;;;11.95;5.50;;;7.00;99.90;;;;;;5014598;28;20307;-81
2022/11/27 10:06:44;;;;;;;11.63;5.68;;;7.00;99.90;;;;;;5018907;28;20876;-81
2022/11/27 10:09:34;;;;;;;11.95;5.88;;;7.00;99.90;;;;;;5011856;28;20054;-81
2022/11/27 10:12:18;;;;;;;12.60;5.93;;;7.00;99.90;;;;;;5013418;28;20772;-79
2022/11/27 10:14:56;;;;;;;8.30;5.85;;;7.00;99.90;;;;;;5014195;28;20175;-80
2022/11/27 10:17:30;;;;;;;9.90;6.70;;;7.00;99.90;;;;;;5023008;28;20091;-81
2022/11/27 10:20:01;;;;;;;9.30;5.72;;;7.00;99.90;;;;;;5016661;28;20103;-82
2022/11/27 10:22:48;;;;;;;13.68;6.72;;;7.00;99.90;;;;;;5010226;28;20130;-81
2022/11/27 10:25:47;;;;;;;12.85;6.55;;;7.00;99.90;;;;;;5018203;28;20049;-81
2022/11/27 10:28:41;;;;;;;9.88;6.55;;;7.00;99.90;;;;;;5015522;28;20048;-81
2022/11/27 10:31:31;;;;;;;10.18;6.50;;;6.90;99.90;;;;;;5009712;28;20080;-81
2022/11/27 10:34:01;;;;;;;9.02;6.57;;;6.90;99.90;;;;;;5012244;28;20057;-81
2022/11/27 10:36:34;;;;;;;15.10;7.30;;;6.90;99.90;;;;;;5017128;28;20041;-81
2022/11/27 10:39:01;;;;;;;15.32;7.18;;;7.00;99.90;;;;;;5015140;28;21025;-80
2022/11/27 10:41:36;;;;;;;12.60;6.93;;;6.90;99.90;;;;;;5014246;28;20049;-80
2022/11/27 10:44:30;;;;;;;15.40;6.88;;;6.90;99.90;;;;;;5009763;28;20049;-81
2022/11/27 10:47:03;;;;;;;10.88;6.50;;;6.90;99.90;;;;;;5009219;28;20057;-80
2022/11/27 10:49:29;;;;;;;10.52;6.85;;;6.90;99.90;;;;;;5009617;28;20142;-80
2022/11/27 10:51:55;;;;;;;12.32;6.53;;;7.40;99.90;;;;;;5013468;28;20042;-79
2022/11/27 10:54:27;;;;;;;11.18;6.57;;;6.80;99.90;;;;;;5003660;28;20064;-79
2022/11/27 10:57:23;;;;;;;12.75;6.75;;;6.80;99.90;;;;;;5008357;28;20049;-80
2022/11/27 11:00:06;;;;;;;11.50;7.10;;;6.80;99.90;;;;;;5007423;28;20477;-79
2022/11/27 11:02:34;;;;;;;10.38;6.55;;;6.80;99.90;;;;;;5014700;28;20048;-80
2022/11/27 11:05:11;;;;;;;13.90;7.65;;;7.00;99.90;;;;;;5011349;28;20060;-79
2022/11/27 11:07:36;;;;;;;12.50;6.93;;;6.80;99.90;;;;;;5021115;28;20059;-80
2022/11/27 11:10:21;;;;;;;11.25;6.32;;;6.80;99.90;;;;;;5019000;28;20822;-80
2022/11/27 11:12:47;;;;;;;11.15;6.70;;;6.80;99.90;;;;;;5009642;28;20072;-79
2022/11/27 11:15:13;;;;;;;16.75;7.47;;;7.60;99.90;;;;;;5012757;28;20049;-80
2022/11/27 11:17:39;;;;;;;14.23;7.07;;;6.80;99.90;;;;;;5014061;28;20065;-80
2022/11/27 11:20:20;;;;;;;9.95;7.20;;;6.90;99.90;;;;;;5015596;28;20053;-79
2022/11/27 11:22:46;;;;;;;13.32;8.13;;;6.80;99.90;;;;;;5010085;28;20722;-79
2022/11/27 11:25:20;;;;;;;8.05;6.53;;;7.50;99.90;;;;;;5015663;28;20854;-79
2022/11/27 11:27:47;;;;;;;13.40;7.30;;;6.80;99.90;;;;;;5014914;28;20045;-79
2022/11/27 11:30:25;;;;;;;9.30;6.22;;;6.80;99.90;;;;;;5013978;28;20041;-78
2022/11/27 11:32:58;;;;;;;13.90;7.82;;;6.80;99.90;;;;;;5013391;28;20064;-79
2022/11/27 11:35:31;;;;;;;12.57;7.13;;;6.80;99.90;;;;;;5018708;28;20130;-79
2022/11/27 11:37:58;;;;;;;9.82;7.07;;;6.80;99.90;;;;;;5017226;28;20164;-78
2022/11/27 11:40:25;;;;;;;12.70;6.75;;;6.80;99.90;;;;;;5018834;28;20048;-78
2022/11/27 11:42:58;;;;;;;11.35;6.32;;;6.80;99.90;;;;;;5016545;28;20145;-78
2022/11/27 11:45:26;;;;;;;13.15;7.72;;;6.80;99.90;;;;;;5010740;28;20042;-79
2022/11/27 11:47:56;;;;;;;11.32;7.35;;;6.80;99.90;;;;;;5017498;28;20119;-79
2022/11/27 11:50:40;;;;;;;10.05;7.00;;;6.80;99.90;;;;;;5007810;28;20120;-79
2022/11/27 11:53:21;;;;;;;12.90;7.50;;;6.80;99.90;;;;;;5013157;28;20053;-80
2022/11/27 11:56:11;;;;;;;11.15;7.03;;;6.80;99.90;;;;;;5010138;28;20057;-79
2022/11/27 11:59:10;;;;;;;7.35;6.35;;;6.80;99.90;;;;;;5012674;28;20054;-79
2022/11/27 12:01:42;;;;;;;15.32;6.85;;;6.80;99.90;;;;;;5020575;28;20048;-79
2022/11/27 12:04:37;;;;;;;15.05;6.63;;;6.90;99.90;;;;;;5016497;28;20045;-78
2022/11/27 12:07:21;;;;;;;9.27;6.80;;;6.80;99.90;;;;;;5008790;28;20062;-79
2022/11/27 12:10:00;;;;;;;13.13;6.82;;;6.90;99.90;;;;;;5010067;28;20507;-79
2022/11/27 12:12:44;;;;;;;15.82;7.38;;;6.90;99.90;;;;;;5003156;28;20181;-78
2022/11/27 12:15:43;;;;;;;10.48;6.57;;;6.90;99.90;;;;;;5005245;28;20045;-78
2022/11/27 12:18:15;;;;;;;11.57;6.00;;;7.00;99.90;;;;;;5010671;28;20057;-78
2022/11/27 12:21:02;;;;;;;12.95;6.72;;;7.00;99.90;;;;;;5009370;28;20049;-78
2022/11/27 12:23:49;;;;;;;11.65;7.22;;;7.00;99.90;;;;;;5009315;28;20064;-78
2022/11/27 12:26:34;;;;;;;9.82;7.88;;;7.10;99.90;;;;;;5020263;28;20498;-77
2022/11/27 12:29:09;;;;;;;11.27;6.72;;;7.10;99.90;;;;;;5014009;28;20668;-78
2022/11/27 12:31:46;;;;;;;9.90;6.72;;;7.10;99.90;;;;;;5012122;28;20045;-78
2022/11/27 12:34:31;;;;;;;7.93;6.15;;;7.10;99.90;;;;;;5006790;28;20850;-78
2022/11/27 12:37:21;;;;;;;7.85;6.28;;;7.10;99.90;;;;;;5013505;28;20056;-78
2022/11/27 12:39:56;;;;;;;12.93;7.30;;;7.00;99.90;;;;;;5014346;28;20164;-78
2022/11/27 12:42:37;;;;;;;11.88;7.97;;;7.10;99.90;;;;;;5009677;28;20084;-78
2022/11/27 12:45:18;;;;;;;10.88;6.97;;;7.10;99.90;;;;;;5015867;28;20056;-78
2022/11/27 12:48:11;;;;;;;12.45;6.68;;;7.10;99.90;;;;;;5010702;28;20045;-77
2022/11/27 12:51:00;;;;;;;13.40;7.40;;;7.10;99.90;;;;;;5013753;28;20056;-78
2022/11/27 12:53:42;;;;;;;12.27;8.02;;;7.10;99.90;;;;;;5020290;28;20049;-78
2022/11/27 12:56:41;;;;;;;12.63;7.18;;;7.10;99.90;;;;;;5006044;28;20170;-78
2022/11/27 12:59:32;;;;;;;13.75;7.25;;;7.10;99.90;;;;;;5015256;28;20045;-78
2022/11/27 13:02:22;;;;;;;12.50;7.38;;;7.10;99.90;;;;;;5011558;28;20038;-78
2022/11/27 13:05:10;;;;;;;9.73;7.88;;;7.10;99.90;;;;;;5016981;28;21111;-77
2022/11/27 13:07:56;;;;;;;13.43;6.90;;;7.10;99.90;;;;;;5013759;28;20148;-77
2022/11/27 13:10:31;;;;;;;11.00;7.35;;;7.10;99.90;;;;;;5022342;28;20048;-78
2022/11/27 13:13:20;;;;;;;13.23;7.00;;;7.10;99.90;;;;;;5018336;28;20162;-77